createdAt,value
2018-07-20T00:01:50.042Z,4.63
2018-07-20T00:04:19.641Z,5.33
2018-07-20T00:06:49.241Z,5.43
2018-07-20T00:09:18.690Z,5.37
2018-07-20T00:11:48.051Z,4.93
2018-07-20T00:14:17.503Z,5.87
2018-07-20T00:16:46.917Z,5.73
2018-07-20T00:19:16.345Z,5.57
2018-07-20T00:21:45.757Z,5.20
2018-07-20T00:24:15.153Z,5.23
2018-07-20T00:26:44.568Z,5.03
2018-07-20T00:29:13.948Z,5.57
2018-07-20T00:31:43.365Z,5.40
2018-07-20T00:34:12.857Z,5.33
2018-07-20T00:36:42.221Z,5.80
2018-07-20T00:39:12.122Z,5.73
2018-07-20T00:41:41.794Z,5.40
2018-07-20T00:44:11.153Z,5.50
2018-07-20T00:46:40.486Z,5.27
2018-07-20T00:49:09.892Z,6.10
2018-07-20T00:51:39.529Z,5.23
2018-07-20T00:54:08.884Z,5.40
2018-07-20T00:56:38.240Z,5.50
2018-07-20T00:59:07.868Z,5.50
2018-07-20T01:01:37.294Z,5.50
2018-07-20T01:04:06.684Z,5.50
2018-07-20T01:06:36.097Z,5.37
2018-07-20T01:09:07.706Z,5.70
2018-07-20T01:11:37.400Z,5.40
2018-07-20T01:14:06.831Z,5.63
2018-07-20T01:16:36.585Z,5.60
2018-07-20T01:19:06.037Z,5.57
2018-07-20T01:21:35.483Z,5.43
2018-07-20T01:24:05.773Z,5.50
2018-07-20T01:26:35.195Z,5.47
2018-07-20T01:29:05.313Z,5.57
2018-07-20T01:31:34.760Z,5.50
2018-07-20T01:34:05.229Z,5.77
2018-07-20T01:36:34.690Z,5.80
2018-07-20T01:39:05.390Z,5.83
2018-07-20T01:41:34.822Z,5.67
2018-07-20T01:44:05.047Z,5.90
2018-07-20T01:46:34.419Z,6.00
2018-07-20T01:49:03.923Z,5.77
2018-07-20T01:51:33.918Z,5.40
2018-07-20T01:54:03.340Z,6.37
2018-07-20T01:56:32.724Z,5.47
2018-07-20T01:59:02.143Z,5.57
2018-07-20T02:01:31.608Z,5.50
2018-07-20T02:04:01.075Z,5.13
2018-07-20T02:06:30.492Z,5.40
2018-07-20T02:08:59.871Z,4.77
2018-07-20T02:11:29.269Z,5.70
2018-07-20T02:13:58.780Z,5.60
2018-07-20T02:16:28.294Z,5.63
2018-07-20T02:18:57.799Z,5.70
2018-07-20T02:21:27.610Z,5.40
2018-07-20T02:23:57.047Z,5.83
2018-07-20T02:26:26.449Z,5.77
2018-07-20T02:28:55.871Z,5.50
2018-07-20T02:31:25.383Z,6.20
2018-07-20T02:33:54.758Z,5.53
2018-07-20T02:36:24.220Z,5.70
2018-07-20T02:38:53.590Z,6.13
2018-07-20T02:41:23.201Z,5.87
2018-07-20T02:43:52.625Z,5.70
2018-07-20T02:46:22.136Z,5.70
2018-07-20T02:48:52.363Z,5.63
2018-07-20T02:51:21.751Z,6.10
2018-07-20T02:53:51.097Z,5.97
2018-07-20T02:56:20.614Z,6.13
2018-07-20T02:58:49.959Z,5.90
2018-07-20T03:01:20.099Z,6.23
2018-07-20T03:03:49.455Z,5.70
2018-07-20T03:06:18.964Z,5.93
2018-07-20T03:08:48.334Z,5.47
2018-07-20T03:11:17.701Z,5.70
2018-07-20T03:13:46.881Z,5.90
2018-07-20T03:16:16.274Z,5.40
2018-07-20T03:18:45.691Z,6.40
2018-07-20T03:21:15.086Z,5.73
2018-07-20T03:23:44.443Z,5.53
2018-07-20T03:26:13.873Z,6.10
2018-07-20T03:28:43.254Z,6.27
2018-07-20T03:31:12.681Z,5.80
2018-07-20T03:33:42.015Z,5.63
2018-07-20T03:36:11.400Z,6.03
2018-07-20T03:38:40.800Z,6.10
2018-07-20T03:41:10.195Z,6.50
2018-07-20T03:43:39.529Z,6.20
2018-07-20T03:46:08.865Z,6.33
2018-07-20T03:48:38.236Z,6.07
2018-07-20T03:51:07.850Z,5.80
2018-07-20T03:53:37.233Z,6.87
2018-07-20T03:56:06.825Z,6.43
2018-07-20T03:58:36.201Z,6.13
2018-07-20T04:01:05.589Z,6.23
2018-07-20T04:03:36.039Z,6.00
2018-07-20T04:06:05.350Z,6.80
2018-07-20T04:08:34.726Z,6.53
2018-07-20T04:11:04.082Z,6.80
2018-07-20T04:13:33.493Z,6.50
2018-07-20T04:16:03.278Z,6.47
2018-07-20T04:18:32.672Z,6.40
2018-07-20T04:21:02.073Z,7.03
2018-07-20T04:23:31.557Z,6.00
2018-07-20T04:26:01.290Z,6.77
2018-07-20T04:28:30.717Z,6.60
2018-07-20T04:31:00.168Z,6.77
2018-07-20T04:33:29.640Z,6.70
2018-07-20T04:36:00.285Z,7.03
2018-07-20T04:38:29.722Z,7.67
2018-07-20T04:40:59.205Z,6.83
2018-07-20T04:43:28.737Z,6.53
2018-07-20T04:45:58.172Z,6.67
2018-07-20T04:48:27.638Z,6.43
2018-07-20T04:50:56.766Z,6.77
2018-07-20T04:53:26.331Z,6.40
2018-07-20T04:55:55.974Z,6.83
2018-07-20T04:58:25.546Z,6.60
2018-07-20T05:00:55.689Z,6.20
2018-07-20T05:03:25.092Z,6.87
2018-07-20T05:05:54.553Z,6.30
2018-07-20T05:08:24.290Z,6.60
2018-07-20T05:10:53.705Z,6.60
2018-07-20T05:13:23.086Z,6.67
2018-07-20T05:15:52.589Z,6.60
2018-07-20T05:18:21.937Z,6.60
2018-07-20T05:20:51.341Z,6.80
2018-07-20T05:23:20.796Z,6.67
2018-07-20T05:25:50.207Z,7.23
2018-07-20T05:28:20.659Z,7.07
2018-07-20T05:30:50.109Z,6.57
2018-07-20T05:33:19.854Z,6.63
2018-07-20T05:35:50.338Z,6.90
2018-07-20T05:38:19.716Z,7.57
2018-07-20T05:40:49.191Z,7.67
2018-07-20T05:43:19.569Z,7.27
2018-07-20T05:45:48.965Z,7.53
2018-07-20T05:48:18.111Z,6.97
2018-07-20T05:50:47.598Z,7.27
2018-07-20T05:53:17.054Z,6.83
2018-07-20T05:55:46.497Z,6.13
2018-07-20T05:58:15.929Z,6.70
2018-07-20T06:00:45.332Z,7.17
2018-07-20T06:03:14.839Z,5.87
2018-07-20T06:05:44.351Z,5.87
2018-07-20T06:08:13.886Z,5.87
2018-07-20T06:10:43.733Z,5.97
2018-07-20T06:13:13.113Z,5.10
2018-07-20T06:15:42.553Z,5.63
2018-07-20T06:18:12.023Z,9.50
2018-07-20T06:20:41.479Z,5.80
2018-07-20T06:26:10.730Z,5.47
2018-07-20T06:28:40.081Z,5.10
2018-07-20T06:31:09.450Z,5.60
2018-07-20T06:33:39.012Z,5.13
2018-07-20T06:36:08.481Z,5.20
2018-07-20T06:38:37.814Z,5.27
2018-07-20T06:41:07.184Z,4.90
2018-07-20T06:43:36.604Z,5.37
2018-07-20T06:46:06.007Z,5.13
2018-07-20T06:48:35.401Z,4.53
2018-07-20T06:51:04.785Z,4.47
2018-07-20T06:53:34.177Z,5.23
2018-07-20T06:56:03.573Z,4.93
2018-07-20T06:58:33.067Z,4.87
2018-07-20T07:01:02.401Z,5.10
2018-07-20T07:03:31.754Z,4.80
2018-07-20T07:06:01.173Z,5.20
2018-07-20T07:08:30.631Z,4.93
2018-07-20T07:11:00.070Z,5.00
2018-07-20T07:13:29.524Z,5.10
2018-07-20T07:15:58.957Z,4.80
2018-07-20T07:18:28.349Z,4.87
2018-07-20T07:20:57.815Z,4.87
2018-07-20T07:23:27.251Z,4.40
2018-07-20T07:25:56.765Z,4.63
2018-07-20T07:28:26.258Z,4.23
2018-07-20T07:30:56.438Z,4.40
2018-07-20T07:33:26.300Z,4.53
2018-07-20T07:35:56.808Z,4.20
2018-07-20T07:38:26.361Z,4.20
2018-07-20T07:40:55.844Z,8.20
2018-07-20T07:43:25.417Z,14.43
2018-07-20T07:45:54.885Z,5.90
2018-07-20T07:48:24.440Z,5.67
2018-07-20T07:50:54.169Z,7.00
2018-07-20T07:53:23.586Z,5.08
2018-07-20T07:55:52.968Z,4.42
2018-07-20T07:58:22.468Z,4.60
2018-07-20T08:00:51.870Z,4.53
2018-07-20T08:03:21.235Z,4.55
2018-07-20T08:05:50.614Z,4.42
2018-07-20T08:08:19.963Z,4.65
2018-07-20T08:10:49.350Z,4.58
2018-07-20T08:13:18.739Z,5.45
2018-07-20T08:15:48.314Z,5.37
2018-07-20T08:18:17.823Z,4.83
2018-07-20T08:20:47.550Z,4.20
2018-07-20T08:23:16.956Z,3.98
2018-07-20T08:25:46.362Z,10.68
2018-07-20T08:28:15.822Z,7.42
2018-07-20T08:30:48.546Z,5.87
2018-07-20T08:33:17.700Z,4.30
2018-07-20T08:35:47.144Z,3.75
2018-07-20T08:38:16.506Z,4.03
2018-07-20T08:40:45.942Z,4.10
2018-07-20T08:43:15.298Z,4.30
2018-07-20T08:45:44.685Z,4.20
2018-07-20T08:48:14.105Z,6.03
2018-07-20T08:50:44.480Z,4.08
2018-07-20T08:53:14.083Z,4.30
2018-07-20T08:55:43.587Z,4.00
2018-07-20T08:58:13.202Z,3.37
2018-07-20T09:00:42.553Z,3.75
2018-07-20T09:03:11.950Z,3.83
2018-07-20T09:05:41.314Z,6.40
2018-07-20T09:08:11.648Z,8.03
2018-07-20T09:10:41.125Z,4.10
2018-07-20T09:13:10.603Z,3.85
2018-07-20T09:15:39.983Z,3.35
2018-07-20T09:18:09.532Z,3.80
2018-07-20T09:20:38.964Z,3.27
2018-07-20T09:23:08.367Z,3.30
2018-07-20T09:25:37.949Z,3.72
2018-07-20T09:28:07.334Z,3.70
2018-07-20T09:30:36.719Z,4.08
2018-07-20T09:33:06.889Z,3.70
2018-07-20T09:35:36.699Z,4.03
2018-07-20T09:38:06.225Z,3.60
2018-07-20T09:40:35.613Z,3.52
2018-07-20T09:43:05.028Z,3.67
2018-07-20T09:45:34.349Z,4.00
2018-07-20T09:48:04.440Z,3.77
2018-07-20T09:50:33.814Z,3.50
2018-07-20T09:53:03.186Z,3.90
2018-07-20T09:55:32.541Z,4.10
2018-07-20T09:58:01.692Z,3.80
2018-07-20T10:00:36.351Z,3.80
2018-07-20T10:03:05.990Z,3.70
2018-07-20T10:05:35.369Z,3.92
2018-07-20T10:08:04.756Z,3.65
2018-07-20T10:10:34.154Z,4.00
2018-07-20T10:13:03.510Z,4.37
2018-07-20T10:15:32.992Z,3.83
2018-07-20T10:18:02.315Z,3.40
2018-07-20T10:20:31.887Z,3.83
2018-07-20T10:23:01.848Z,3.80
2018-07-20T10:25:31.355Z,3.40
2018-07-20T10:28:00.741Z,3.67
2018-07-20T10:30:30.334Z,3.55
2018-07-20T10:32:59.706Z,4.08
2018-07-20T10:35:29.187Z,3.98
2018-07-20T10:37:58.653Z,3.98
2018-07-20T10:40:28.673Z,3.70
2018-07-20T10:42:59.328Z,3.83
2018-07-20T10:45:28.964Z,3.60
2018-07-20T10:47:58.445Z,3.70
2018-07-20T10:50:27.945Z,3.95
2018-07-20T10:52:57.392Z,4.20
2018-07-20T10:55:26.836Z,3.70
2018-07-20T10:57:56.282Z,4.10
2018-07-20T11:00:27.090Z,3.75
2018-07-20T11:02:56.595Z,4.15
2018-07-20T11:05:26.075Z,4.10
2018-07-20T11:07:57.425Z,3.90
2018-07-20T11:10:27.153Z,3.95
2018-07-20T11:12:56.777Z,3.90
2018-07-20T11:15:28.784Z,4.10
2018-07-20T11:17:58.239Z,4.22
2018-07-20T11:20:27.716Z,4.10
2018-07-20T11:22:57.456Z,3.95
2018-07-20T11:25:27.126Z,3.90
2018-07-20T11:27:56.840Z,4.35
2018-07-20T11:30:26.252Z,3.60
2018-07-20T11:32:55.707Z,4.03
2018-07-20T11:35:25.147Z,3.90
2018-07-20T11:37:56.764Z,4.00
2018-07-20T11:40:26.179Z,4.00
2018-07-20T11:42:55.668Z,4.20
2018-07-20T11:45:25.359Z,3.95
2018-07-20T11:47:54.841Z,3.83
2018-07-20T11:50:24.293Z,3.72
2018-07-20T11:52:53.688Z,3.80
2018-07-20T11:55:23.193Z,4.10
2018-07-20T11:57:53.115Z,4.08
2018-07-20T12:00:22.655Z,3.72
2018-07-20T12:02:52.074Z,3.80
2018-07-20T12:05:21.565Z,4.00
2018-07-20T12:07:51.147Z,4.00
2018-07-20T12:10:20.471Z,3.90
2018-07-20T12:12:49.927Z,3.42
2018-07-20T12:15:19.289Z,4.00
2018-07-20T12:17:48.449Z,3.77
2018-07-20T12:20:17.805Z,3.65
2018-07-20T12:22:47.207Z,3.83
2018-07-20T12:25:16.610Z,3.47
2018-07-20T12:27:46.031Z,3.75
2018-07-20T12:30:15.497Z,3.95
2018-07-20T12:32:45.179Z,3.85
2018-07-20T12:35:14.946Z,4.03
2018-07-20T12:37:44.514Z,4.25
2018-07-20T12:40:14.054Z,3.80
2018-07-20T12:42:43.483Z,3.83
2018-07-20T12:45:12.853Z,3.83
2018-07-20T12:47:42.258Z,3.95
2018-07-20T12:50:11.831Z,4.17
2018-07-20T12:52:41.200Z,3.87
2018-07-20T12:55:10.605Z,3.85
2018-07-20T12:57:40.005Z,3.95
2018-07-20T13:00:09.378Z,3.80
2018-07-20T13:02:38.753Z,3.70
2018-07-20T13:05:08.123Z,3.95
2018-07-20T13:07:37.583Z,4.28
2018-07-20T13:10:09.090Z,4.08
2018-07-20T13:12:38.458Z,3.60
2018-07-20T13:15:07.809Z,4.10
2018-07-20T13:17:37.285Z,4.20
2018-07-20T13:20:07.053Z,4.37
2018-07-20T13:22:36.469Z,4.12
2018-07-20T13:25:05.910Z,4.28
2018-07-20T13:27:35.362Z,3.77
2018-07-20T13:30:06.178Z,3.90
2018-07-20T13:32:35.573Z,4.25
2018-07-20T13:35:06.375Z,4.35
2018-07-20T13:37:35.947Z,3.90
2018-07-20T13:40:05.769Z,3.83
2018-07-20T13:42:35.172Z,4.30
2018-07-20T13:45:04.710Z,4.35
2018-07-20T13:47:33.993Z,4.30
2018-07-20T13:50:03.964Z,4.40
2018-07-20T13:52:33.542Z,4.10
2018-07-20T13:55:02.883Z,4.22
2018-07-20T13:57:32.215Z,4.03
2018-07-20T14:00:01.601Z,4.20
2018-07-20T14:02:30.976Z,4.03
2018-07-20T14:05:00.357Z,4.20
2018-07-20T14:07:29.762Z,4.33
2018-07-20T14:09:59.177Z,4.28
2018-07-20T14:12:28.817Z,4.20
2018-07-20T14:14:58.285Z,4.05
2018-07-20T14:17:27.859Z,4.10
2018-07-20T14:19:57.270Z,4.60
2018-07-20T14:22:26.645Z,4.03
2018-07-20T14:24:56.106Z,4.10
2018-07-20T14:27:25.621Z,4.70
2018-07-20T14:29:55.875Z,4.10
2018-07-20T14:32:25.298Z,4.55
2018-07-20T14:34:55.744Z,4.12
2018-07-20T14:37:25.197Z,4.42
2018-07-20T14:39:54.717Z,3.70
2018-07-20T14:42:24.109Z,4.22
2018-07-20T14:44:56.392Z,4.20
2018-07-20T14:47:26.137Z,4.30
2018-07-20T14:49:55.592Z,3.85
2018-07-20T14:52:25.139Z,4.53
2018-07-20T14:54:54.633Z,4.20
2018-07-20T14:57:24.105Z,4.50
2018-07-20T14:59:55.343Z,4.20
2018-07-20T15:02:24.845Z,4.28
2018-07-20T15:04:54.186Z,4.47
2018-07-20T15:07:23.690Z,4.58
2018-07-20T15:09:53.079Z,4.45
2018-07-20T15:12:23.402Z,4.05
2018-07-20T15:14:52.767Z,4.33
2018-07-20T15:17:22.199Z,4.40
2018-07-20T15:19:51.542Z,4.30
2018-07-20T15:22:20.925Z,4.72
2018-07-20T15:24:50.349Z,4.33
2018-07-20T15:27:19.769Z,4.78
2018-07-20T15:29:49.125Z,4.50
2018-07-20T15:32:18.467Z,4.30
2018-07-20T15:34:47.799Z,4.33
2018-07-20T15:37:17.190Z,3.95
2018-07-20T15:39:46.695Z,4.25
2018-07-20T15:42:16.027Z,4.42
2018-07-20T15:44:45.507Z,4.20
2018-07-20T15:47:14.977Z,4.12
2018-07-20T15:49:44.457Z,4.62
2018-07-20T15:54:43.261Z,5.60
2018-07-20T15:57:12.582Z,4.60
2018-07-20T15:59:42.013Z,4.00
2018-07-20T16:02:11.361Z,4.12
2018-07-20T16:04:40.745Z,4.30
2018-07-20T16:07:10.208Z,4.60
2018-07-20T16:09:39.657Z,4.22
2018-07-20T16:12:09.046Z,4.47
2018-07-20T16:14:38.388Z,4.30
2018-07-20T16:17:07.792Z,4.33
2018-07-20T16:19:37.270Z,4.95
2018-07-20T16:22:06.739Z,3.90
2018-07-20T16:24:36.387Z,4.40
2018-07-20T16:27:06.097Z,4.50
2018-07-20T16:29:35.525Z,4.42
2018-07-20T16:32:04.888Z,4.35
2018-07-20T16:34:34.563Z,4.05
2018-07-20T16:37:03.962Z,4.05
2018-07-20T16:39:33.564Z,5.12
2018-07-20T16:42:02.957Z,4.53
2018-07-20T16:44:32.309Z,4.35
2018-07-20T16:47:01.710Z,5.87
2018-07-20T16:49:31.162Z,5.03
2018-07-20T16:52:00.619Z,4.78
2018-07-20T16:54:30.051Z,4.50
2018-07-20T16:56:59.510Z,4.92
2018-07-20T16:59:29.070Z,4.40
2018-07-20T17:01:58.533Z,4.47
2018-07-20T17:04:28.043Z,4.47
2018-07-20T17:06:57.480Z,4.42
2018-07-20T17:09:27.212Z,4.50
2018-07-20T17:11:56.609Z,4.30
2018-07-20T17:14:26.011Z,4.35
2018-07-20T17:16:55.364Z,4.60
2018-07-20T17:19:24.737Z,4.20
2018-07-20T17:21:54.138Z,4.72
2018-07-20T17:24:23.354Z,4.83
2018-07-20T17:26:52.736Z,4.47
2018-07-20T17:29:22.161Z,4.78
2018-07-20T17:31:51.601Z,4.67
2018-07-20T17:34:21.183Z,4.80
2018-07-20T17:36:50.585Z,4.37
2018-07-20T17:39:20.059Z,4.28
2018-07-20T17:41:49.557Z,4.58
2018-07-20T17:44:18.924Z,4.62
2018-07-20T17:46:48.322Z,5.10
2018-07-20T17:49:17.637Z,4.65
2018-07-20T17:51:47.067Z,5.12
2018-07-20T17:54:17.646Z,4.65
2018-07-20T17:56:47.160Z,4.45
2018-07-20T17:59:16.524Z,4.83
2018-07-20T18:01:45.961Z,4.67
2018-07-20T18:04:15.500Z,4.30
2018-07-20T18:06:45.099Z,4.65
2018-07-20T18:09:14.448Z,4.45
2018-07-20T18:11:43.866Z,4.60
2018-07-20T18:14:13.301Z,4.70
2018-07-20T18:16:42.669Z,4.95
2018-07-20T18:19:12.088Z,4.97
2018-07-20T18:21:42.021Z,4.90
2018-07-20T18:24:11.566Z,5.12
2018-07-20T18:26:40.909Z,4.80
2018-07-20T18:29:10.370Z,5.20
2018-07-20T18:31:39.772Z,5.75
2018-07-20T18:34:09.238Z,6.60
2018-07-20T18:36:38.845Z,6.90
2018-07-20T18:39:11.469Z,6.20
2018-07-20T18:41:41.518Z,6.10
2018-07-20T18:44:11.335Z,6.10
2018-07-20T18:46:40.838Z,6.25
2018-07-20T18:49:10.418Z,5.62
2018-07-20T18:51:39.745Z,5.67
2018-07-20T18:54:09.283Z,5.97
2018-07-20T18:56:38.883Z,4.87
2018-07-20T18:59:08.222Z,5.50
2018-07-20T19:01:37.569Z,5.33
2018-07-20T19:04:07.102Z,5.12
2018-07-20T19:06:36.423Z,5.00
2018-07-20T19:09:09.277Z,5.87
2018-07-20T19:11:38.730Z,5.42
2018-07-20T19:14:08.124Z,5.60
2018-07-20T19:16:37.661Z,5.25
2018-07-20T19:19:07.316Z,5.90
2018-07-20T19:21:36.614Z,5.85
2018-07-20T19:24:06.134Z,5.97
2018-07-20T19:26:35.497Z,6.20
2018-07-20T19:29:09.371Z,5.33
2018-07-20T19:31:38.673Z,5.35
2018-07-20T19:34:08.367Z,5.33
2018-07-20T19:36:37.713Z,5.40
2018-07-20T19:39:10.131Z,5.10
2018-07-20T19:41:39.557Z,5.10
2018-07-20T19:44:09.036Z,5.70
2018-07-20T19:46:38.424Z,5.25
2018-07-20T19:49:08.457Z,6.42
2018-07-20T19:51:38.166Z,5.45
2018-07-20T19:54:07.552Z,5.35
2018-07-20T19:56:36.945Z,5.47
2018-07-20T19:59:06.473Z,5.05
2018-07-20T20:01:35.856Z,5.47
2018-07-20T20:04:05.850Z,5.62
2018-07-20T20:06:35.231Z,5.95
2018-07-20T20:09:08.029Z,5.50
2018-07-20T20:11:37.554Z,5.67
2018-07-20T20:14:06.965Z,7.05
2018-07-20T20:16:36.976Z,6.78
2018-07-20T20:19:06.441Z,6.35
2018-07-20T20:21:35.958Z,6.00
2018-07-20T20:24:05.389Z,6.60
2018-07-20T20:26:35.097Z,5.92
2018-07-20T20:29:04.537Z,6.12
2018-07-20T20:31:33.996Z,6.17
2018-07-20T20:34:03.652Z,5.40
2018-07-20T20:36:33.139Z,6.20
2018-07-20T20:39:02.258Z,6.50
2018-07-20T20:41:31.944Z,5.95
2018-07-20T20:44:01.436Z,6.50
2018-07-20T20:46:30.757Z,6.90
2018-07-20T20:49:00.099Z,7.83
2018-07-20T20:51:29.594Z,7.03
2018-07-20T20:53:58.895Z,7.62
2018-07-20T20:56:28.289Z,7.33
2018-07-20T20:58:58.189Z,7.37
2018-07-20T21:01:27.631Z,8.43
2018-07-20T21:03:57.077Z,8.53
2018-07-20T21:06:26.594Z,9.23
2018-07-20T21:08:56.054Z,8.70
2018-07-20T21:11:25.419Z,8.80
2018-07-20T21:13:54.825Z,8.33
2018-07-20T21:16:24.458Z,9.63
2018-07-20T21:18:53.935Z,9.03
2018-07-20T21:21:23.262Z,8.85
2018-07-20T21:23:52.768Z,9.30
2018-07-20T21:26:22.126Z,9.40
2018-07-20T21:28:51.473Z,10.10
2018-07-20T21:31:21.217Z,9.53
2018-07-20T21:33:50.564Z,9.50
2018-07-20T21:36:20.014Z,9.43
2018-07-20T21:38:49.393Z,10.23
2018-07-20T21:41:18.741Z,9.43
2018-07-20T21:43:47.839Z,9.50
2018-07-20T21:46:18.149Z,9.47
2018-07-20T21:48:47.583Z,8.83
2018-07-20T21:51:16.913Z,8.93
2018-07-20T21:53:46.272Z,9.30
2018-07-20T21:56:15.619Z,8.53
2018-07-20T21:58:44.973Z,9.13
2018-07-20T22:01:14.321Z,8.37
2018-07-20T22:03:43.674Z,8.60
2018-07-20T22:06:13.042Z,8.93
2018-07-20T22:08:42.542Z,8.20
2018-07-20T22:11:11.967Z,8.37
2018-07-20T22:13:41.307Z,8.30
2018-07-20T22:16:10.733Z,8.57
2018-07-20T22:18:40.390Z,9.10
2018-07-20T22:21:09.754Z,9.10
2018-07-20T22:23:39.144Z,9.23
2018-07-20T22:26:08.498Z,7.90
2018-07-20T22:28:37.876Z,9.50
2018-07-20T22:31:07.765Z,8.97
2018-07-20T22:33:37.204Z,9.10
2018-07-20T22:36:06.810Z,9.60
2018-07-20T22:38:36.181Z,8.63
2018-07-20T22:41:05.522Z,7.47
2018-07-20T22:43:35.140Z,7.30
2018-07-20T22:46:04.525Z,7.97
2018-07-20T22:48:33.956Z,7.40
2018-07-20T22:51:03.328Z,8.07
2018-07-20T22:53:32.703Z,7.60
2018-07-20T22:56:02.743Z,8.10
2018-07-20T22:58:36.509Z,8.30
2018-07-20T23:01:06.363Z,7.90
2018-07-20T23:03:35.747Z,8.20
2018-07-20T23:06:05.121Z,7.80
2018-07-20T23:08:34.486Z,7.90
2018-07-20T23:11:03.903Z,7.90
2018-07-20T23:13:33.261Z,8.17
2018-07-20T23:16:02.649Z,7.27
2018-07-20T23:18:31.742Z,7.40
2018-07-20T23:21:00.968Z,7.47
2018-07-20T23:23:30.355Z,7.20
2018-07-20T23:25:59.735Z,7.30
2018-07-20T23:28:29.164Z,7.63
2018-07-20T23:30:58.570Z,7.63
2018-07-20T23:33:27.965Z,7.30
2018-07-20T23:35:57.367Z,7.23
2018-07-20T23:38:26.727Z,7.03
2018-07-20T23:40:56.089Z,7.13
2018-07-20T23:43:25.481Z,6.57
2018-07-20T23:45:54.909Z,6.83
2018-07-20T23:48:24.322Z,6.30
2018-07-20T23:50:53.698Z,7.07
2018-07-20T23:53:23.058Z,6.50
2018-07-20T23:55:52.362Z,6.40
2018-07-20T23:58:21.797Z,6.13
